Time;durP1;ratioP1;P1;durP2;ratioP2;P2;SDS_P1;SDS_P2;PMS_P1;PMS_P2;Temp;Humidity;BMP_temperature;BMP_pressure;BME280_temperature;BME280_humidity;BME280_pressure;Samples;Min_cycle;Max_cycle;Signal;HPM_P1;HPM_P2
2022/07/24 00:02:02;;;;;;;11.40;10.20;;;21.20;85.10;;;;;;5051437;28;20487;-90
2022/07/24 00:04:30;;;;;;;12.93;11.73;;;21.20;85.20;;;;;;5047447;28;20195;-89
2022/07/24 00:06:57;;;;;;;12.10;10.90;;;21.20;85.80;;;;;;5042105;28;20286;-90
2022/07/24 00:09:24;;;;;;;10.82;9.77;;;21.20;85.50;;;;;;5044787;28;20226;-89
2022/07/24 00:11:51;;;;;;;10.45;9.45;;;21.20;85.80;;;;;;5041704;28;20265;-89
2022/07/24 00:14:18;;;;;;;10.85;9.85;;;21.20;86.20;;;;;;5048049;28;20262;-90
2022/07/24 00:16:45;;;;;;;10.68;9.68;;;21.30;85.90;;;;;;5051380;28;20201;-89
2022/07/24 00:19:13;;;;;;;10.38;9.20;;;21.30;85.70;;;;;;5040124;28;20212;-89
2022/07/24 00:21:40;;;;;;;10.75;9.65;;;21.30;86.10;;;;;;5040121;28;20640;-90
2022/07/24 00:24:08;;;;;;;10.80;9.75;;;21.20;86.60;;;;;;5050038;28;20194;-89
2022/07/24 00:26:35;;;;;;;10.57;9.63;;;21.20;86.70;;;;;;5045822;28;20203;-89
2022/07/24 00:29:03;;;;;;;10.55;9.55;;;21.20;86.70;;;;;;5055630;28;20205;-90
2022/07/24 00:31:29;;;;;;;10.40;9.50;;;21.20;86.40;;;;;;5049950;28;20203;-90
2022/07/24 00:33:56;;;;;;;10.00;9.10;;;21.30;86.30;;;;;;5055920;28;20238;-89
2022/07/24 00:36:24;;;;;;;10.45;9.45;;;21.30;86.60;;;;;;5049149;28;20229;-89
2022/07/24 00:38:52;;;;;;;10.38;9.38;;;21.40;86.00;;;;;;5058430;28;20195;-88
2022/07/24 00:41:18;;;;;;;10.45;9.43;;;21.30;86.20;;;;;;5038638;28;20275;-90
2022/07/24 00:44:00;;;;;;;10.90;9.90;;;21.20;85.70;;;;;;5035605;28;20286;-89
2022/07/24 00:46:27;;;;;;;11.38;10.27;;;21.10;86.50;;;;;;5039021;28;20207;-89
2022/07/24 00:48:54;;;;;;;10.65;9.70;;;21.10;87.40;;;;;;5041103;28;20202;-90
2022/07/24 00:51:21;;;;;;;11.50;10.48;;;20.90;89.90;;;;;;5051585;28;20255;-89
2022/07/24 00:53:50;;;;;;;10.95;9.90;;;20.90;90.20;;;;;;5041463;28;20270;-89
2022/07/24 00:56:17;;;;;;;9.98;9.07;;;20.80;90.10;;;;;;5045020;28;20207;-90
2022/07/24 00:58:48;;;;;;;10.65;9.65;;;20.80;89.60;;;;;;5039442;28;20202;-90
2022/07/24 01:01:16;;;;;;;10.90;9.82;;;20.90;89.40;;;;;;5041828;28;20202;-89
2022/07/24 01:03:43;;;;;;;10.18;9.23;;;20.80;89.70;;;;;;5044956;28;20210;-90
2022/07/24 01:06:12;;;;;;;11.68;10.57;;;20.80;89.70;;;;;;5041722;28;20282;-89
2022/07/24 01:08:40;;;;;;;11.00;9.85;;;20.80;90.00;;;;;;5057088;28;20190;-89
2022/07/24 01:11:08;;;;;;;10.13;9.02;;;20.70;90.00;;;;;;5041118;28;20231;-89
2022/07/24 01:13:42;;;;;;;10.38;9.30;;;20.80;89.00;;;;;;5045295;28;20300;-89
2022/07/24 01:16:10;;;;;;;10.73;9.63;;;20.90;89.30;;;;;;5042091;28;20206;-91
2022/07/24 01:18:37;;;;;;;10.07;9.18;;;20.80;89.30;;;;;;5045560;28;20201;-89
2022/07/24 01:21:08;;;;;;;10.75;9.68;;;20.70;89.20;;;;;;5043874;28;20266;-88
2022/07/24 01:23:35;;;;;;;9.82;8.93;;;20.70;89.70;;;;;;5043458;28;20195;-90
2022/07/24 01:26:02;;;;;;;9.45;8.60;;;20.70;89.70;;;;;;5039037;28;20213;-88
2022/07/24 01:28:29;;;;;;;10.93;9.93;;;20.80;90.00;;;;;;5038099;28;20775;-89
2022/07/24 01:30:56;;;;;;;10.95;9.93;;;20.80;90.00;;;;;;5033551;28;20254;-90
2022/07/24 01:33:23;;;;;;;10.70;9.70;;;20.70;89.90;;;;;;5026210;28;20237;-89
2022/07/24 01:35:51;;;;;;;9.77;8.77;;;20.70;90.10;;;;;;5042939;28;20213;-89
2022/07/24 01:38:19;;;;;;;10.98;9.98;;;20.70;90.50;;;;;;5044461;28;20205;-89
2022/07/24 01:40:48;;;;;;;10.32;9.32;;;20.60;90.40;;;;;;5043896;28;20672;-89
2022/07/24 01:43:15;;;;;;;10.50;9.52;;;20.60;90.20;;;;;;5043474;28;20201;-90
2022/07/24 01:45:42;;;;;;;11.18;10.07;;;20.60;90.20;;;;;;5044444;28;20226;-89
2022/07/24 01:48:10;;;;;;;10.27;9.27;;;20.70;90.20;;;;;;5044329;28;20214;-88
2022/07/24 01:50:37;;;;;;;9.65;8.85;;;20.80;90.10;;;;;;5042744;28;20249;-90
2022/07/24 01:53:03;;;;;;;11.23;9.90;;;20.80;90.10;;;;;;5033444;28;20222;-90
2022/07/24 01:55:32;;;;;;;10.32;9.32;;;20.80;90.00;;;;;;5032867;28;20728;-88
2022/07/24 01:57:59;;;;;;;10.23;9.32;;;20.80;90.10;;;;;;5043896;28;20267;-89
2022/07/24 02:00:26;;;;;;;10.98;9.90;;;20.70;90.30;;;;;;5047492;28;20221;-90
2022/07/24 02:02:53;;;;;;;10.25;9.25;;;20.70;90.30;;;;;;5044066;28;20205;-89
2022/07/24 02:05:19;;;;;;;10.75;9.73;;;20.70;90.30;;;;;;5043646;28;20269;-89
2022/07/24 02:07:54;;;;;;;10.65;9.60;;;20.70;90.20;;;;;;5044391;28;20301;-89
2022/07/24 02:10:21;;;;;;;10.23;9.23;;;20.70;90.30;;;;;;5046646;28;20244;-90
2022/07/24 02:12:51;;;;;;;10.20;9.20;;;20.60;90.30;;;;;;5039848;28;20238;-89
2022/07/24 02:15:18;;;;;;;10.80;9.80;;;20.60;90.40;;;;;;5045344;28;20568;-89
2022/07/24 02:17:47;;;;;;;10.82;9.82;;;20.60;90.40;;;;;;5050634;28;20221;-88
2022/07/24 02:20:14;;;;;;;10.30;9.40;;;20.60;90.40;;;;;;5044979;28;20220;-88
2022/07/24 02:22:41;;;;;;;10.45;9.40;;;20.50;90.50;;;;;;5043390;28;20198;-89
2022/07/24 02:25:08;;;;;;;11.07;10.07;;;20.60;90.50;;;;;;5040619;28;20215;-90
2022/07/24 02:27:35;;;;;;;10.10;9.20;;;20.50;90.50;;;;;;5042999;28;20211;-89
2022/07/24 02:30:06;;;;;;;9.93;9.02;;;20.60;90.50;;;;;;5046961;28;20229;-88
2022/07/24 02:32:42;;;;;;;10.60;9.60;;;20.60;90.40;;;;;;5045523;28;20231;-89
2022/07/24 02:35:18;;;;;;;9.68;8.88;;;20.60;90.50;;;;;;5047479;28;20654;-89
2022/07/24 02:37:48;;;;;;;10.38;9.38;;;20.60;90.30;;;;;;5050732;28;20262;-89
2022/07/24 02:40:31;;;;;;;10.48;9.57;;;20.60;90.20;;;;;;5046740;28;20270;-90
2022/07/24 02:43:01;;;;;;;12.38;9.57;;;20.50;90.30;;;;;;5034662;28;20202;-90
2022/07/24 02:45:30;;;;;;;12.90;9.68;;;20.30;90.40;;;;;;5045578;28;20343;-91
2022/07/24 02:48:18;;;;;;;11.57;10.38;;;20.20;90.80;;;;;;5051247;28;20232;-88
2022/07/24 02:51:00;;;;;;;11.40;10.23;;;20.10;91.20;;;;;;5049243;28;20218;-89
2022/07/24 02:53:27;;;;;;;11.23;10.13;;;20.00;91.80;;;;;;5047978;28;20266;-89
2022/07/24 02:56:00;;;;;;;10.73;9.73;;;20.00;91.60;;;;;;5049472;28;20262;-88
2022/07/24 02:58:36;;;;;;;10.65;9.65;;;20.10;91.50;;;;;;5058852;28;20416;-89
2022/07/24 03:01:08;;;;;;;10.52;9.60;;;20.20;91.60;;;;;;5047111;28;20237;-89
2022/07/24 03:03:48;;;;;;;10.18;9.27;;;20.20;91.40;;;;;;5052032;28;20202;-88
2022/07/24 03:06:24;;;;;;;10.43;9.52;;;20.20;91.50;;;;;;5048171;28;20266;-89
2022/07/24 03:08:54;;;;;;;10.93;9.93;;;20.10;91.60;;;;;;5039590;28;20194;-88
2022/07/24 03:11:24;;;;;;;12.35;10.50;;;19.90;91.90;;;;;;5048397;28;20209;-89
2022/07/24 03:14:06;;;;;;;11.45;10.25;;;19.80;92.40;;;;;;5035850;28;20202;-89
2022/07/24 03:16:35;;;;;;;11.00;9.93;;;19.70;92.60;;;;;;5044270;28;20622;-90
2022/07/24 03:19:01;;;;;;;10.80;9.80;;;19.70;92.60;;;;;;5039987;28;20205;-89
2022/07/24 03:21:28;;;;;;;11.02;9.85;;;19.60;92.60;;;;;;5045408;28;20209;-89
2022/07/24 03:23:55;;;;;;;10.93;9.93;;;19.60;93.10;;;;;;5037113;28;20205;-88
2022/07/24 03:26:22;;;;;;;10.90;9.90;;;19.60;93.30;;;;;;5041161;28;20209;-89
2022/07/24 03:28:49;;;;;;;11.07;10.10;;;19.60;93.50;;;;;;5033789;28;20198;-88
2022/07/24 03:31:16;;;;;;;11.30;10.20;;;19.60;93.60;;;;;;5044591;28;20246;-88
2022/07/24 03:33:44;;;;;;;10.93;9.93;;;19.60;93.40;;;;;;5041497;28;20250;-89
2022/07/24 03:36:11;;;;;;;11.18;10.05;;;19.60;93.40;;;;;;5044076;28;20225;-88
2022/07/24 03:38:37;;;;;;;10.60;9.70;;;19.50;93.50;;;;;;5041106;28;20297;-89
2022/07/24 03:41:04;;;;;;;11.57;10.48;;;19.40;93.90;;;;;;5044103;28;20197;-89
2022/07/24 03:43:31;;;;;;;12.30;11.13;;;19.30;94.30;;;;;;5043821;28;20205;-88
2022/07/24 03:45:58;;;;;;;12.00;10.85;;;19.20;94.70;;;;;;5035794;28;20203;-89
2022/07/24 03:48:25;;;;;;;10.98;9.98;;;19.20;95.10;;;;;;5035293;28;20270;-88
2022/07/24 03:50:53;;;;;;;13.10;11.88;;;19.20;95.30;;;;;;5037760;28;20793;-89
2022/07/24 03:53:20;;;;;;;11.52;10.40;;;19.10;95.50;;;;;;5040243;28;20210;-89
2022/07/24 03:55:47;;;;;;;12.45;11.25;;;19.10;95.80;;;;;;5043251;28;20266;-90
2022/07/24 03:58:14;;;;;;;11.70;10.60;;;19.10;95.80;;;;;;5046577;28;20265;-88
2022/07/24 04:00:41;;;;;;;11.95;10.77;;;19.10;95.80;;;;;;5044198;28;20198;-89
2022/07/24 04:03:08;;;;;;;11.18;9.88;;;19.10;95.90;;;;;;5039788;28;20398;-89
2022/07/24 04:05:35;;;;;;;12.07;10.98;;;19.10;96.10;;;;;;5046899;28;20270;-89
2022/07/24 04:08:03;;;;;;;12.45;11.15;;;19.10;96.00;;;;;;5047458;28;20741;-89
2022/07/24 04:10:30;;;;;;;12.23;10.98;;;19.10;96.20;;;;;;5038455;28;20222;-89
2022/07/24 04:12:57;;;;;;;12.52;11.32;;;19.10;96.20;;;;;;5049000;28;20285;-88
2022/07/24 04:15:24;;;;;;;11.45;10.38;;;19.10;96.30;;;;;;5045480;28;20297;-88
2022/07/24 04:17:50;;;;;;;12.23;11.13;;;19.10;96.20;;;;;;5049586;28;20314;-90
2022/07/24 04:20:17;;;;;;;12.25;11.05;;;19.00;96.40;;;;;;5044691;28;20192;-89
2022/07/24 04:22:44;;;;;;;13.07;11.77;;;19.00;96.80;;;;;;5041948;28;20626;-90
2022/07/24 04:25:12;;;;;;;12.38;11.15;;;19.00;96.90;;;;;;5037079;28;20262;-89
2022/07/24 04:27:39;;;;;;;12.15;10.98;;;19.00;96.90;;;;;;5046058;28;20290;-89
2022/07/24 04:30:13;;;;;;;12.13;11.00;;;19.20;96.60;;;;;;5047553;28;20604;-89
2022/07/24 04:32:40;;;;;;;12.27;11.07;;;19.20;96.50;;;;;;5043538;28;20232;-89
2022/07/24 04:35:07;;;;;;;13.07;11.60;;;19.40;96.40;;;;;;5044844;28;20279;-88
2022/07/24 04:37:34;;;;;;;12.32;11.05;;;19.40;96.00;;;;;;5056718;28;20229;-88
2022/07/24 04:40:15;;;;;;;11.90;10.70;;;19.50;96.00;;;;;;5048390;28;20237;-90
2022/07/24 04:42:42;;;;;;;13.60;10.68;;;19.50;95.90;;;;;;5046647;28;20281;-89
2022/07/24 04:45:18;;;;;;;11.90;10.80;;;19.60;95.80;;;;;;5048677;28;20203;-88
2022/07/24 04:47:45;;;;;;;12.63;11.52;;;19.60;95.70;;;;;;5045988;28;20202;-88
2022/07/24 04:50:12;;;;;;;12.38;11.15;;;19.70;95.60;;;;;;5047346;28;20205;-89
2022/07/24 04:52:43;;;;;;;12.30;11.20;;;19.70;95.50;;;;;;5046552;28;20214;-88
2022/07/24 04:55:11;;;;;;;11.68;10.45;;;19.70;95.40;;;;;;5052884;28;20249;-91
2022/07/24 05:00:21;;;;;;;13.63;12.10;;;20.00;95.00;;;;;;5048634;28;20257;-89
2022/07/24 05:05:36;;;;;;;13.52;11.73;;;20.20;94.30;;;;;;5036315;28;20257;-89
2022/07/24 05:08:04;;;;;;;13.23;11.95;;;20.40;94.00;;;;;;5041362;28;20236;-89
2022/07/24 05:10:30;;;;;;;13.18;11.75;;;20.70;92.80;;;;;;5035140;28;20194;-89
2022/07/24 05:12:59;;;;;;;15.43;12.98;;;21.00;91.70;;;;;;5044661;28;20326;-89
2022/07/24 05:15:25;;;;;;;14.63;12.90;;;21.10;91.20;;;;;;5040615;28;20195;-89
2022/07/24 05:17:52;;;;;;;13.23;11.93;;;21.20;91.00;;;;;;5047868;28;20221;-89
2022/07/24 05:20:19;;;;;;;13.40;12.10;;;21.30;90.40;;;;;;5048536;28;20198;-91
2022/07/24 05:22:46;;;;;;;13.07;11.85;;;21.40;90.00;;;;;;5049179;28;20202;-89
2022/07/24 05:25:13;;;;;;;13.35;12.15;;;21.40;89.90;;;;;;5041168;28;20199;-89
2022/07/24 05:27:40;;;;;;;13.60;12.30;;;21.40;90.20;;;;;;5040243;28;20203;-89
2022/07/24 05:30:10;;;;;;;13.73;12.38;;;21.50;90.10;;;;;;5046831;28;20199;-88
2022/07/24 05:32:37;;;;;;;13.40;12.10;;;21.50;88.40;;;;;;5047567;28;20963;-89
2022/07/24 05:35:05;;;;;;;12.70;11.50;;;21.60;88.80;;;;;;5052279;28;20221;-90
2022/07/24 05:37:32;;;;;;;14.23;12.93;;;21.70;88.40;;;;;;5062898;28;20266;-90
2022/07/24 05:39:58;;;;;;;30.90;27.80;;;21.90;85.60;;;;;;5038318;28;20306;-90
2022/07/24 05:42:25;;;;;;;17.85;16.13;;;21.90;85.80;;;;;;5042995;28;20326;-90
2022/07/24 05:44:52;;;;;;;17.75;16.15;;;22.10;83.60;;;;;;5039234;28;20237;-89
2022/07/24 05:47:20;;;;;;;14.27;12.95;;;22.20;82.40;;;;;;5039275;28;20579;-89
2022/07/24 05:49:47;;;;;;;14.65;13.25;;;22.50;81.10;;;;;;5037932;28;20203;-90
2022/07/24 05:52:14;;;;;;;14.65;13.25;;;22.70;79.30;;;;;;5040160;28;20225;-90
2022/07/24 05:54:41;;;;;;;14.10;12.80;;;22.80;78.10;;;;;;5040011;28;20657;-90
2022/07/24 05:57:08;;;;;;;12.95;11.65;;;22.70;78.40;;;;;;5038462;28;20654;-90
2022/07/24 05:59:35;;;;;;;14.70;13.30;;;22.70;79.10;;;;;;5036582;28;20578;-90
2022/07/24 06:02:03;;;;;;;14.18;12.77;;;22.90;78.10;;;;;;5035211;28;20735;-91
2022/07/24 06:04:32;;;;;;;13.90;12.60;;;23.00;76.80;;;;;;5038065;28;20202;-89
2022/07/24 06:06:59;;;;;;;13.90;12.50;;;22.90;77.00;;;;;;5032821;28;20684;-91
2022/07/24 06:09:26;;;;;;;13.50;12.30;;;22.90;76.80;;;;;;5039144;28;20218;-90
2022/07/24 06:11:53;;;;;;;13.63;12.23;;;22.80;77.20;;;;;;5031547;28;20218;-90
2022/07/24 06:14:24;;;;;;;13.07;11.88;;;22.80;78.20;;;;;;5036282;28;20293;-90
2022/07/24 06:16:51;;;;;;;15.32;13.60;;;22.70;79.00;;;;;;5032550;28;20391;-89
2022/07/24 06:19:18;;;;;;;14.32;13.00;;;22.60;77.70;;;;;;5033914;28;20233;-91
2022/07/24 06:21:47;;;;;;;17.55;15.02;;;22.60;77.90;;;;;;5039947;28;20212;-90
2022/07/24 06:24:14;;;;;;;24.30;21.60;;;22.60;78.10;;;;;;5037463;28;20207;-90
2022/07/24 06:26:41;;;;;;;16.35;14.70;;;22.70;77.70;;;;;;5037796;28;20205;-90
2022/07/24 06:29:07;;;;;;;15.88;14.48;;;22.80;77.80;;;;;;5033461;28;20203;-90
2022/07/24 06:31:35;;;;;;;14.38;13.07;;;22.70;76.80;;;;;;5039044;28;20756;-90
2022/07/24 06:34:01;;;;;;;14.70;12.65;;;22.90;75.40;;;;;;5034638;28;20217;-90
2022/07/24 06:36:28;;;;;;;13.90;12.50;;;23.10;74.60;;;;;;5029178;28;20202;-91
2022/07/24 06:38:56;;;;;;;13.90;12.05;;;23.10;74.10;;;;;;5026189;28;20201;-89
2022/07/24 06:41:23;;;;;;;12.98;11.68;;;23.20;71.70;;;;;;5023484;28;20554;-90
2022/07/24 06:43:50;;;;;;;13.00;11.70;;;23.40;61.80;;;;;;5029196;28;20212;-89
2022/07/24 06:46:17;;;;;;;13.38;12.00;;;23.40;61.70;;;;;;5033518;28;20562;-89
2022/07/24 06:48:44;;;;;;;12.88;11.57;;;23.10;63.90;;;;;;5026471;28;20238;-90
2022/07/24 06:51:11;;;;;;;14.10;11.55;;;23.10;65.80;;;;;;5026469;28;20234;-90
2022/07/24 06:53:40;;;;;;;13.13;11.70;;;23.10;66.00;;;;;;5030433;28;20218;-87
2022/07/24 06:56:09;;;;;;;13.30;12.00;;;23.10;64.00;;;;;;5029741;28;20205;-90
2022/07/24 06:58:36;;;;;;;12.60;11.27;;;23.10;64.60;;;;;;5023088;28;20526;-89
2022/07/24 07:01:02;;;;;;;13.05;11.52;;;23.20;63.20;;;;;;5021391;28;20249;-86
2022/07/24 07:03:29;;;;;;;12.10;10.90;;;23.40;59.10;;;;;;5018615;28;20284;-89
2022/07/24 07:05:56;;;;;;;12.55;11.45;;;23.50;60.30;;;;;;5020676;28;20653;-88
2022/07/24 07:08:23;;;;;;;14.10;12.68;;;23.60;60.20;;;;;;5026517;28;20253;-88
2022/07/24 07:10:50;;;;;;;11.25;10.23;;;23.60;59.20;;;;;;5027724;28;20542;-88
2022/07/24 07:13:18;;;;;;;11.93;10.82;;;23.70;59.20;;;;;;5027299;28;20224;-87
2022/07/24 07:15:45;;;;;;;11.52;10.38;;;23.80;59.30;;;;;;5023862;28;20195;-88
2022/07/24 07:18:16;;;;;;;11.82;10.63;;;23.90;59.40;;;;;;5027755;28;20293;-90
2022/07/24 07:20:42;;;;;;;11.00;10.10;;;24.10;59.70;;;;;;5029770;28;20203;-89
2022/07/24 07:23:09;;;;;;;11.98;10.77;;;24.10;59.60;;;;;;5022557;28;20196;-88
2022/07/24 07:25:36;;;;;;;11.13;9.98;;;24.20;49.30;;;;;;5018560;28;20288;-90
2022/07/24 07:28:03;;;;;;;11.25;9.70;;;24.30;50.00;;;;;;5021945;28;20206;-88
2022/07/24 07:30:38;;;;;;;11.48;10.27;;;24.40;50.40;;;;;;5024422;28;20234;-87
2022/07/24 07:33:07;;;;;;;10.48;9.43;;;24.50;50.00;;;;;;5021979;28;20233;-92
2022/07/24 07:35:33;;;;;;;11.68;9.77;;;24.40;49.80;;;;;;5024308;28;20592;-90
2022/07/24 07:38:01;;;;;;;9.85;8.85;;;24.50;47.90;;;;;;5017753;28;20217;-88
2022/07/24 07:40:42;;;;;;;9.25;8.45;;;24.60;43.10;;;;;;5020187;28;20584;-87
2022/07/24 07:43:13;;;;;;;10.10;9.20;;;24.70;42.10;;;;;;5023443;28;20198;-87
2022/07/24 07:45:44;;;;;;;10.80;9.65;;;24.80;43.70;;;;;;5015969;28;20211;-88
2022/07/24 07:48:11;;;;;;;10.38;9.27;;;24.80;45.70;;;;;;5016742;28;20636;-90
2022/07/24 07:50:43;;;;;;;11.05;10.05;;;24.80;42.70;;;;;;5015968;28;20206;-88
2022/07/24 07:53:10;;;;;;;12.00;9.82;;;24.90;43.30;;;;;;5025175;28;20218;-89
2022/07/24 07:55:37;;;;;;;9.95;9.05;;;25.00;40.80;;;;;;5032218;28;20203;-90
2022/07/24 07:58:05;;;;;;;9.05;8.25;;;25.00;42.10;;;;;;5019815;28;20209;-88
2022/07/24 08:00:32;;;;;;;9.45;8.55;;;25.10;41.70;;;;;;5028081;28;20194;-86
2022/07/24 08:03:01;;;;;;;9.27;8.38;;;25.20;39.00;;;;;;5038076;28;20286;-88
2022/07/24 08:05:28;;;;;;;9.55;8.55;;;25.20;38.20;;;;;;5039999;28;20183;-88
2022/07/24 08:07:55;;;;;;;10.52;8.98;;;25.30;36.40;;;;;;5038230;28;20205;-84
2022/07/24 08:10:22;;;;;;;10.02;7.97;;;25.60;35.40;;;;;;5026202;28;20199;-85
2022/07/24 08:12:49;;;;;;;9.50;8.50;;;25.60;35.50;;;;;;5035008;28;20223;-88
2022/07/24 08:15:16;;;;;;;8.93;8.00;;;25.60;34.50;;;;;;5032472;28;20277;-88
2022/07/24 08:17:52;;;;;;;9.18;8.27;;;25.70;33.10;;;;;;5038651;28;20214;-88
2022/07/24 08:20:20;;;;;;;10.18;9.00;;;25.80;36.70;;;;;;5046416;28;20265;-86
2022/07/24 08:22:48;;;;;;;10.05;8.27;;;25.90;32.80;;;;;;5046471;28;20286;-86
2022/07/24 08:25:15;;;;;;;9.95;8.95;;;25.90;31.70;;;;;;5047036;28;20215;-86
2022/07/24 08:27:42;;;;;;;10.25;9.25;;;26.00;31.00;;;;;;5044304;28;20260;-86
2022/07/24 08:30:11;;;;;;;9.23;8.32;;;26.00;30.00;;;;;;5045617;28;20194;-87
2022/07/24 08:32:43;;;;;;;8.45;7.65;;;26.10;32.70;;;;;;5039018;28;20237;-86
2022/07/24 08:35:11;;;;;;;9.32;8.48;;;26.30;31.20;;;;;;5040606;28;20306;-87
2022/07/24 08:37:41;;;;;;;8.30;7.50;;;26.40;29.90;;;;;;5045529;28;20203;-87
2022/07/24 08:40:10;;;;;;;9.07;8.18;;;26.90;27.40;;;;;;5042523;28;20670;-88
2022/07/24 08:42:37;;;;;;;8.48;7.68;;;27.00;26.50;;;;;;5040134;28;20224;-88
2022/07/24 08:45:05;;;;;;;9.15;8.38;;;26.90;27.50;;;;;;5030817;28;20727;-89
2022/07/24 08:47:33;;;;;;;9.68;7.95;;;27.20;25.80;;;;;;5031746;28;20212;-89
2022/07/24 08:50:01;;;;;;;8.95;8.05;;;27.70;24.30;;;;;;5032120;28;20241;-89
2022/07/24 08:52:30;;;;;;;9.40;8.45;;;28.40;23.60;;;;;;5033755;28;20233;-89
2022/07/24 08:54:58;;;;;;;9.15;8.25;;;29.30;20.00;;;;;;5030377;28;20202;-86
2022/07/24 08:57:26;;;;;;;9.60;8.60;;;30.00;18.80;;;;;;5030577;28;20650;-88
2022/07/24 08:59:55;;;;;;;8.73;7.93;;;30.80;17.00;;;;;;5031083;28;20553;-86
2022/07/24 09:02:21;;;;;;;8.80;8.07;;;32.50;15.30;;;;;;5026010;28;20297;-88
2022/07/24 09:04:51;;;;;;;8.88;8.13;;;33.20;13.80;;;;;;5026108;28;20203;-87
2022/07/24 09:07:22;;;;;;;9.43;8.63;;;33.80;12.70;;;;;;5028329;28;20192;-87
2022/07/24 09:10:15;;;;;;;9.35;8.65;;;33.70;12.30;;;;;;5027870;28;20194;-87
2022/07/24 09:12:45;;;;;;;12.07;10.90;;;34.80;11.10;;;;;;5039287;28;20246;-88
2022/07/24 09:15:15;;;;;;;11.00;10.10;;;34.60;10.90;;;;;;5035995;28;20575;-88
2022/07/24 09:17:50;;;;;;;9.40;8.60;;;35.00;10.60;;;;;;5041432;28;20238;-88
2022/07/24 09:20:17;;;;;;;8.48;7.88;;;35.30;8.50;;;;;;5028177;28;20198;-88
2022/07/24 09:22:44;;;;;;;10.05;9.25;;;35.40;9.80;;;;;;5025000;28;20206;-88
2022/07/24 09:25:16;;;;;;;9.48;8.65;;;35.80;8.70;;;;;;5026418;28;20200;-89
2022/07/24 09:27:48;;;;;;;10.85;9.85;;;36.00;8.50;;;;;;5020940;28;20409;-89
2022/07/24 09:30:31;;;;;;;9.70;8.77;;;35.80;8.80;;;;;;5022899;28;20198;-89
2022/07/24 09:33:02;;;;;;;10.02;9.07;;;35.10;9.50;;;;;;5025083;28;20226;-90
2022/07/24 09:35:33;;;;;;;9.23;8.52;;;34.00;10.40;;;;;;5022028;28;20216;-90
2022/07/24 09:38:02;;;;;;;9.85;8.95;;;33.20;12.90;;;;;;5024424;28;20205;-89
2022/07/24 09:40:32;;;;;;;9.40;8.63;;;33.20;13.30;;;;;;5026749;28;20721;-89
2022/07/24 09:43:20;;;;;;;9.82;8.93;;;33.50;12.10;;;;;;5023421;28;20198;-89
2022/07/24 09:45:58;;;;;;;12.77;11.57;;;34.50;11.60;;;;;;5023931;28;20217;-89
2022/07/24 09:48:38;;;;;;;10.50;9.70;;;35.30;9.10;;;;;;5024739;28;20245;-91
2022/07/24 09:51:25;;;;;;;10.05;9.15;;;35.30;9.30;;;;;;5026753;28;20202;-89
2022/07/24 09:54:07;;;;;;;9.52;8.77;;;35.20;9.60;;;;;;5037317;28;20215;-87
2022/07/24 09:56:38;;;;;;;9.80;8.90;;;34.90;10.70;;;;;;5032753;28;20204;-88
2022/07/24 09:59:07;;;;;;;10.32;9.52;;;34.60;10.10;;;;;;5034640;28;20626;-88
2022/07/24 10:01:35;;;;;;;10.32;9.43;;;34.40;10.80;;;;;;5029740;28;20202;-90
2022/07/24 10:04:06;;;;;;;11.27;10.30;;;34.60;9.80;;;;;;5035069;28;20206;-88
2022/07/24 10:06:38;;;;;;;10.32;9.27;;;34.20;10.10;;;;;;5036102;28;20212;-89
2022/07/24 10:09:14;;;;;;;12.25;11.23;;;33.30;10.30;;;;;;5032567;28;20206;-86
2022/07/24 10:11:47;;;;;;;9.07;8.13;;;32.20;14.40;;;;;;5026089;28;20199;-87
2022/07/24 10:14:43;;;;;;;8.82;8.10;;;32.00;13.70;;;;;;5033904;28;20208;-87
2022/07/24 10:17:47;;;;;;;8.90;8.00;;;33.30;12.50;;;;;;5024176;28;20194;-88
2022/07/24 10:30:23;;;;;;;9.48;8.60;;;35.00;9.50;;;;;;5047922;28;20180;-86
2022/07/24 10:52:50;;;;;;;9.15;8.30;;;35.20;8.40;;;;;;5057667;28;20235;-85
2022/07/24 10:58:53;;;;;;;9.20;8.18;;;34.10;10.20;;;;;;5051308;28;20554;-85
2022/07/24 11:01:32;;;;;;;7.97;7.38;;;33.00;11.20;;;;;;5055396;28;20189;-84
2022/07/24 11:04:26;;;;;;;9.10;8.38;;;32.00;13.30;;;;;;5062824;28;20220;-84
2022/07/24 11:07:12;;;;;;;9.80;8.88;;;31.30;14.20;;;;;;4999094;28;20207;-84
2022/07/24 11:09:57;;;;;;;10.85;9.82;;;31.30;14.10;;;;;;4995793;28;20195;-85
2022/07/24 11:12:32;;;;;;;13.82;12.43;;;31.60;14.60;;;;;;4990625;28;20195;-85
2022/07/24 11:21:28;;;;;;;9.57;8.07;;;32.00;12.70;;;;;;4986160;28;20209;-84
2022/07/24 11:24:48;;;;;;;8.75;7.90;;;32.10;12.20;;;;;;4995192;28;20200;-84
2022/07/24 11:27:20;;;;;;;7.93;7.22;;;32.30;14.10;;;;;;4983433;28;20572;-85
2022/07/24 11:29:55;;;;;;;8.77;7.90;;;32.00;12.90;;;;;;4996176;28;20200;-85
2022/07/24 11:32:22;;;;;;;8.85;7.68;;;31.50;13.70;;;;;;5128833;22;20586;-83
2022/07/24 11:41:58;;;;;;;8.27;7.57;;;30.50;15.50;;;;;;5067018;28;20218;-84
2022/07/24 11:51:12;;;;;;;9.10;8.20;;;30.20;16.00;;;;;;5090352;28;20601;-84
2022/07/24 11:57:02;;;;;;;8.43;7.60;;;29.80;15.80;;;;;;5086729;28;20176;-84
2022/07/24 12:02:54;;;;;;;9.05;7.93;;;30.10;17.20;;;;;;5075823;28;20257;-84
2022/07/24 12:12:17;;;;;;;8.07;7.38;;;30.50;16.90;;;;;;5057470;28;20241;-84
2022/07/24 12:18:27;;;;;;;11.05;8.45;;;29.70;16.50;;;;;;5059827;28;20628;-83
2022/07/24 12:24:18;;;;;;;8.32;7.47;;;29.50;16.40;;;;;;5063540;28;20233;-83
2022/07/24 12:30:20;;;;;;;8.13;7.43;;;30.40;15.90;;;;;;5078683;28;20222;-84
2022/07/24 12:36:12;;;;;;;12.07;7.10;;;29.90;15.40;;;;;;5080521;28;20204;-83
2022/07/24 12:42:04;;;;;;;8.02;7.40;;;30.60;14.10;;;;;;5085139;28;20233;-84
2022/07/24 12:45:08;;;;;;;8.15;7.45;;;30.70;14.00;;;;;;5076534;28;20644;-84
2022/07/24 12:57:43;;;;;;;7.53;6.93;;;30.70;16.00;;;;;;5080477;28;20322;-84
2022/07/24 13:03:43;;;;;;;8.75;7.00;;;31.00;13.70;;;;;;5073618;28;20234;-84
2022/07/24 13:09:33;;;;;;;8.30;7.50;;;30.70;13.30;;;;;;5077227;28;20160;-84
2022/07/24 13:15:24;;;;;;;7.63;6.93;;;30.10;13.80;;;;;;5067858;28;20342;-84
2022/07/24 13:24:37;;;;;;;8.18;7.20;;;29.80;15.30;;;;;;5072495;28;20271;-85
2022/07/24 13:27:05;;;;;;;10.50;8.75;;;29.70;16.40;;;;;;5076393;28;20196;-84
2022/07/24 13:30:12;;;;;;;9.40;8.48;;;29.40;16.40;;;;;;5076247;28;20629;-85
2022/07/24 13:32:40;;;;;;;8.82;7.80;;;29.10;16.20;;;;;;5437566;22;20236;-85
2022/07/24 13:38:35;;;;;;;9.02;7.28;;;28.90;16.10;;;;;;5056210;28;20211;-85
2022/07/24 13:44:26;;;;;;;8.48;7.68;;;28.70;16.00;;;;;;5060568;28;20207;-83
2022/07/24 13:50:16;;;;;;;9.05;7.32;;;29.40;16.30;;;;;;5047798;28;20184;-85
2022/07/24 13:56:06;;;;;;;7.55;6.93;;;30.00;14.80;;;;;;5057467;28;20172;-83
2022/07/24 13:58:37;;;;;;;8.10;7.38;;;30.20;14.40;;;;;;5052013;28;20198;-83
2022/07/24 14:01:36;;;;;;;8.10;7.30;;;30.30;14.20;;;;;;5037783;28;20213;-83
2022/07/24 14:04:13;;;;;;;7.90;7.20;;;30.00;14.70;;;;;;5047213;28;20197;-83
2022/07/24 14:06:44;;;;;;;8.07;7.32;;;29.80;15.00;;;;;;5052849;28;20186;-83
2022/07/24 14:09:36;;;;;;;8.50;6.85;;;29.70;14.50;;;;;;5048561;28;20197;-84
2022/07/24 14:12:25;;;;;;;8.18;7.38;;;29.80;14.80;;;;;;5056904;28;20185;-84
2022/07/24 14:21:37;;;;;;;7.70;7.00;;;30.80;12.60;;;;;;5036724;28;20193;-83
2022/07/24 14:24:07;;;;;;;7.82;7.13;;;30.70;13.50;;;;;;5043031;28;20201;-84
2022/07/24 14:30:14;;;;;;;10.35;7.70;;;29.90;14.30;;;;;;5043180;28;20181;-83
2022/07/24 14:46:26;;;;;;;7.88;7.18;;;29.90;14.10;;;;;;5057616;28;20173;-83
2022/07/24 14:52:26;;;;;;;7.95;7.03;;;29.70;15.10;;;;;;5050837;28;20253;-83
2022/07/24 15:01:56;;;;;;;8.07;7.30;;;29.50;13.80;;;;;;5056986;28;20177;-83
2022/07/24 15:11:13;;;;;;;7.63;6.82;;;29.60;14.10;;;;;;5055152;28;20204;-85
2022/07/24 15:14:05;;;;;;;7.60;6.88;;;29.60;14.10;;;;;;5055728;28;20220;-84
2022/07/24 15:20:22;;;;;;;8.57;7.78;;;29.90;13.40;;;;;;5056144;28;20157;-84
2022/07/24 15:26:22;;;;;;;7.53;6.85;;;30.00;14.10;;;;;;5063420;28;20187;-83
2022/07/24 15:28:49;;;;;;;8.65;7.40;;;29.70;15.10;;;;;;5067617;28;20193;-84
2022/07/24 15:52:31;;;;;;;7.82;7.03;;;29.50;15.20;;;;;;5177403;22;20714;-85
2022/07/24 15:58:25;;;;;;;7.85;7.15;;;29.30;15.60;;;;;;5098619;28;20203;-84
2022/07/24 16:08:21;;;;;;;7.93;7.13;;;29.30;15.20;;;;;;5097360;28;20188;-84
2022/07/24 16:11:01;;;;;;;8.88;7.07;;;29.30;14.80;;;;;;5097254;28;20583;-84
2022/07/24 16:16:52;;;;;;;7.93;6.82;;;29.20;15.80;;;;;;5098778;28;20205;-84
2022/07/24 16:23:18;;;;;;;7.80;7.10;;;29.10;15.90;;;;;;5098630;28;20631;-84
2022/07/24 16:29:15;;;;;;;7.43;6.82;;;29.10;14.90;;;;;;5097330;28;20160;-83
2022/07/24 20:50:45;;;;;;;11.52;7.97;;;23.60;35.40;;;;;;5076890;28;20221;-85
2022/07/24 20:53:25;;;;;;;9.77;8.65;;;23.60;35.40;;;;;;5076425;28;20623;-85
2022/07/24 20:56:13;;;;;;;9.35;8.40;;;23.50;36.10;;;;;;5067689;28;20200;-84